Time;durP1;ratioP1;P1;durP2;ratioP2;P2;SDS_P1;SDS_P2;PMS_P1;PMS_P2;Temp;Humidity;BMP_temperature;BMP_pressure;BME280_temperature;BME280_humidity;BME280_pressure;Samples;Min_cycle;Max_cycle;Signal;HPM_P1;HPM_P2
2022/08/12 00:44:41;;;;;;;4.13;2.95;;;14.40;99.90;;;;;;5132419;27;20039;-50
2022/08/12 00:47:11;;;;;;;4.07;3.05;;;14.30;99.90;;;;;;5140470;27;20487;-50
2022/08/12 00:49:52;;;;;;;4.43;2.97;;;14.30;99.90;;;;;;5131774;27;20043;-49
2022/08/12 00:52:23;;;;;;;5.18;3.17;;;14.40;99.90;;;;;;5132582;27;20130;-50
2022/08/12 00:54:58;;;;;;;4.65;2.65;;;14.40;99.90;;;;;;5132491;27;20050;-50
2022/08/12 00:57:35;;;;;;;4.35;2.90;;;14.40;99.90;;;;;;5132132;27;20495;-50
2022/08/12 01:00:10;;;;;;;3.97;3.00;;;14.40;99.90;;;;;;5129779;27;20043;-49
2022/08/12 01:02:39;;;;;;;4.25;2.95;;;14.40;99.90;;;;;;5132075;27;20043;-50
2022/08/12 01:13:29;;;;;;;4.50;3.15;;;14.10;99.90;;;;;;5132531;28;20054;-50
2022/08/12 01:15:58;;;;;;;4.80;2.83;;;14.10;99.90;;;;;;5131766;27;20047;-49
2022/08/12 01:18:31;;;;;;;4.50;3.05;;;14.10;99.90;;;;;;5132085;27;20046;-49
2022/08/12 01:21:28;;;;;;;4.80;2.95;;;14.10;99.90;;;;;;5131485;28;20051;-49
2022/08/12 01:24:32;;;;;;;7.00;2.88;;;14.10;99.90;;;;;;5131979;27;20047;-50
2022/08/12 01:27:02;;;;;;;6.97;3.15;;;14.10;99.90;;;;;;5130467;28;20384;-49
2022/08/12 01:29:40;;;;;;;3.35;2.85;;;14.20;99.90;;;;;;5132183;27;20098;-49
2022/08/12 01:32:13;;;;;;;5.32;3.00;;;14.10;99.90;;;;;;5131968;27;20051;-49
2022/08/12 01:34:50;;;;;;;5.55;3.20;;;14.00;99.90;;;;;;5131713;27;20043;-50
2022/08/12 01:37:21;;;;;;;9.45;3.70;;;13.80;99.90;;;;;;5124740;28;20498;-50
2022/08/12 01:39:53;;;;;;;4.53;3.33;;;13.60;99.90;;;;;;5132294;27;20050;-52
2022/08/12 01:42:49;;;;;;;5.22;3.42;;;13.50;99.90;;;;;;5132219;27;20047;-49
2022/08/12 01:45:28;;;;;;;5.75;3.67;;;13.30;99.90;;;;;;5131785;28;20062;-49
2022/08/12 01:48:16;;;;;;;6.72;3.67;;;13.20;99.90;;;;;;5080168;28;20040;-48
2022/08/12 01:50:49;;;;;;;6.03;3.85;;;13.20;99.90;;;;;;5089744;28;20058;-48
2022/08/12 01:53:23;;;;;;;3.85;2.92;;;13.20;99.90;;;;;;5078817;28;20378;-48
2022/08/12 01:55:51;;;;;;;8.32;3.30;;;13.30;99.90;;;;;;5073948;28;20493;-48
2022/08/12 01:58:28;;;;;;;11.90;3.60;;;13.40;99.90;;;;;;5057901;28;20053;-49
2022/08/12 02:01:07;;;;;;;4.88;2.78;;;13.50;99.90;;;;;;5050475;28;20045;-49
2022/08/12 02:12:53;;;;;;;4.63;2.88;;;13.40;99.90;;;;;;5069616;28;20056;-48
2022/08/12 02:16:14;;;;;;;4.50;3.42;;;13.20;99.90;;;;;;5064019;28;20099;-48
2022/08/12 02:19:01;;;;;;;3.70;2.85;;;13.20;99.90;;;;;;5031815;28;20057;-49
2022/08/12 02:22:27;;;;;;;6.03;3.58;;;13.10;99.90;;;;;;5073079;28;20079;-49
2022/08/12 02:25:23;;;;;;;5.93;3.03;;;13.10;99.90;;;;;;5051459;28;20501;-48
2022/08/12 02:27:52;;;;;;;8.38;3.17;;;13.20;99.90;;;;;;5054119;28;20049;-52
2022/08/12 02:30:28;;;;;;;5.30;3.13;;;13.20;99.90;;;;;;5058715;28;20037;-50
2022/08/12 02:33:09;;;;;;;3.85;3.00;;;13.20;99.90;;;;;;5065621;28;20123;-48
2022/08/12 02:35:38;;;;;;;3.95;2.78;;;13.20;99.90;;;;;;5073506;28;20135;-47
2022/08/12 02:38:08;;;;;;;4.68;3.13;;;13.20;99.90;;;;;;5074022;28;20055;-48
2022/08/12 02:40:38;;;;;;;4.75;3.28;;;13.10;99.90;;;;;;5072622;28;20086;-50
2022/08/12 02:43:20;;;;;;;4.57;3.22;;;13.10;99.90;;;;;;5063829;28;20044;-51
2022/08/12 02:45:59;;;;;;;3.95;3.00;;;12.90;99.90;;;;;;5068934;28;20052;-53
2022/08/12 02:48:53;;;;;;;4.00;3.10;;;12.90;99.90;;;;;;5067715;28;20032;-48
2022/08/12 02:51:29;;;;;;;6.07;3.17;;;12.90;99.90;;;;;;5073128;28;20056;-50
2022/08/12 02:53:59;;;;;;;4.70;3.60;;;12.80;99.90;;;;;;5071095;28;20045;-48
2022/08/12 02:56:32;;;;;;;9.20;2.90;;;12.70;99.90;;;;;;5068221;28;20055;-48
2022/08/12 02:59:00;;;;;;;3.95;2.97;;;12.60;99.90;;;;;;5073504;28;20053;-48
2022/08/12 03:01:32;;;;;;;6.32;2.92;;;12.60;99.90;;;;;;5072504;28;20040;-49
2022/08/12 03:04:02;;;;;;;4.35;3.40;;;12.50;99.90;;;;;;5071194;28;20063;-48
2022/08/12 03:07:13;;;;;;;4.75;3.45;;;12.60;99.90;;;;;;5053374;28;20049;-50
2022/08/12 03:09:49;;;;;;;4.40;3.08;;;12.60;99.90;;;;;;5041123;28;20088;-48
2022/08/12 03:12:36;;;;;;;4.85;2.83;;;12.60;99.90;;;;;;5064893;28;20049;-49
2022/08/12 03:15:17;;;;;;;4.35;2.95;;;12.50;99.90;;;;;;5053322;28;20044;-49
2022/08/12 03:18:05;;;;;;;4.43;3.35;;;12.50;99.90;;;;;;5053104;28;20053;-49
2022/08/12 03:20:52;;;;;;;4.55;3.10;;;12.40;99.90;;;;;;5062698;28;20033;-50
2022/08/12 03:23:21;;;;;;;5.35;3.20;;;12.40;99.90;;;;;;5072981;28;20531;-51
2022/08/12 03:26:01;;;;;;;4.93;3.08;;;12.40;99.90;;;;;;5073109;28;20045;-48
2022/08/12 03:28:49;;;;;;;4.00;3.03;;;12.40;99.90;;;;;;5071066;28;20150;-48
2022/08/12 03:31:27;;;;;;;4.35;3.38;;;12.40;99.90;;;;;;5055863;28;20040;-48
2022/08/12 03:33:58;;;;;;;4.93;3.17;;;12.40;99.90;;;;;;5052550;28;20048;-49
2022/08/12 03:36:33;;;;;;;4.05;3.00;;;12.20;99.90;;;;;;5055192;28;20048;-53
2022/08/12 03:42:00;;;;;;;5.10;3.33;;;12.10;99.90;;;;;;5071165;28;20044;-51
2022/08/12 04:01:25;;;;;;;6.30;3.67;;;12.20;99.90;;;;;;5054298;28;20099;-49
2022/08/12 04:03:53;;;;;;;7.03;2.88;;;12.30;99.90;;;;;;5052173;28;20514;-49
2022/08/12 04:06:25;;;;;;;4.60;3.05;;;12.20;99.90;;;;;;5055549;28;20490;-48
2022/08/12 04:09:04;;;;;;;6.10;3.20;;;12.20;99.90;;;;;;5069861;28;20051;-48
2022/08/12 04:14:30;;;;;;;5.60;3.80;;;12.10;99.90;;;;;;5057324;28;20393;-48
2022/08/12 04:16:57;;;;;;;8.05;3.30;;;12.10;99.90;;;;;;5058701;28;20057;-49
2022/08/12 04:19:25;;;;;;;5.22;3.67;;;12.00;99.90;;;;;;5063470;28;20041;-48
2022/08/12 04:21:54;;;;;;;4.03;2.90;;;12.10;99.90;;;;;;5071611;28;20120;-50
2022/08/12 04:24:33;;;;;;;6.55;3.22;;;12.10;99.90;;;;;;5070999;28;20086;-49
2022/08/12 04:27:09;;;;;;;7.25;3.20;;;12.10;99.90;;;;;;5062852;28;20489;-49
2022/08/12 04:29:39;;;;;;;4.43;2.60;;;12.20;99.90;;;;;;5051615;28;20094;-49
2022/08/12 04:32:26;;;;;;;4.07;2.90;;;12.20;99.90;;;;;;5051807;28;20047;-51
2022/08/12 04:34:53;;;;;;;5.40;3.63;;;12.20;99.90;;;;;;5054578;28;20156;-48
2022/08/12 04:37:19;;;;;;;5.88;3.03;;;12.20;99.90;;;;;;5044835;28;20419;-50
2022/08/12 04:39:47;;;;;;;4.00;3.05;;;12.20;99.90;;;;;;5071471;28;20055;-50
2022/08/12 04:42:14;;;;;;;9.90;3.67;;;12.20;99.90;;;;;;5071110;28;20052;-49
2022/08/12 04:44:42;;;;;;;6.47;3.10;;;12.20;99.90;;;;;;5070616;28;20037;-48
2022/08/12 04:47:13;;;;;;;4.13;3.10;;;12.10;99.90;;;;;;5056135;28;20047;-48
2022/08/12 04:49:43;;;;;;;4.97;3.58;;;12.00;99.90;;;;;;5051530;28;20110;-49
2022/08/12 04:52:11;;;;;;;6.22;3.63;;;12.00;99.90;;;;;;5052217;28;20049;-50
2022/08/12 04:54:37;;;;;;;;;;;12.00;99.90;;;;;;5071937;28;20399;-48
2022/08/12 04:57:04;;;;;;;5.57;3.72;;;12.00;99.90;;;;;;5059103;28;20548;-49
2022/08/12 04:59:32;;;;;;;8.70;4.72;;;12.00;99.90;;;;;;5060285;28;20088;-50
2022/08/12 05:02:17;;;;;;;7.15;3.80;;;12.00;99.90;;;;;;5062447;28;20120;-48
2022/08/12 05:04:50;;;;;;;9.38;4.50;;;12.10;99.90;;;;;;5062203;28;20485;-49
2022/08/12 05:07:18;;;;;;;6.97;4.03;;;12.10;99.90;;;;;;5060370;28;20067;-51
2022/08/12 05:09:45;;;;;;;7.97;3.50;;;12.20;99.90;;;;;;5061800;28;20033;-48
2022/08/12 05:12:35;;;;;;;4.75;3.30;;;12.20;99.90;;;;;;5060897;28;20044;-49
2022/08/12 05:15:04;;;;;;;7.82;3.35;;;12.40;99.90;;;;;;5058976;28;20461;-48
2022/08/12 05:17:51;;;;;;;6.00;3.33;;;12.50;99.90;;;;;;5062899;28;20048;-48
2022/08/12 05:20:21;;;;;;;8.05;3.05;;;12.60;99.90;;;;;;5069978;28;20048;-48
2022/08/12 05:22:49;;;;;;;5.40;3.47;;;12.70;99.90;;;;;;5062929;28;20548;-49
2022/08/12 05:25:23;;;;;;;6.80;3.65;;;12.80;99.90;;;;;;5071285;28;20072;-49
2022/08/12 05:27:50;;;;;;;7.95;3.75;;;12.90;99.90;;;;;;5070930;28;20045;-48
2022/08/12 05:30:26;;;;;;;8.02;4.00;;;12.90;99.90;;;;;;5069912;28;20041;-50
2022/08/12 05:32:54;;;;;;;6.32;4.65;;;13.00;99.90;;;;;;5053230;28;20037;-49
2022/08/12 05:35:26;;;;;;;8.13;5.50;;;13.00;99.90;;;;;;5051072;28;20095;-48
2022/08/12 05:38:54;;;;;;;10.75;4.75;;;13.00;99.90;;;;;;5056990;28;20044;-48
2022/08/12 05:40:40;;;;;;;6.90;4.18;;;13.00;99.90;;;;;;5044091;28;20045;-49
2022/08/12 05:43:07;;;;;;;8.77;4.68;;;13.10;99.90;;;;;;5070901;28;20041;-50
2022/08/12 05:45:34;;;;;;;10.27;5.18;;;13.10;99.90;;;;;;5070194;28;20493;-48
2022/08/12 05:48:01;;;;;;;6.25;4.50;;;13.20;99.90;;;;;;5062519;28;20041;-50
2022/08/12 05:50:28;;;;;;;6.47;4.50;;;13.30;99.90;;;;;;5070960;28;20442;-48
2022/08/12 05:52:55;;;;;;;9.15;4.90;;;13.30;99.90;;;;;;5074784;28;20090;-48
2022/08/12 05:55:22;;;;;;;7.68;5.13;;;13.40;99.90;;;;;;5073447;28;20040;-48
2022/08/12 05:57:55;;;;;;;7.15;4.47;;;13.40;99.90;;;;;;5066231;28;20056;-49
2022/08/12 06:00:24;;;;;;;9.88;5.07;;;13.50;99.90;;;;;;5059791;28;20048;-51
2022/08/12 06:03:01;;;;;;;6.47;4.65;;;13.50;99.90;;;;;;5053965;28;20048;-50
2022/08/12 06:05:33;;;;;;;7.57;4.47;;;13.60;99.90;;;;;;5058021;28;20094;-51
2022/08/12 06:08:20;;;;;;;8.77;4.85;;;13.70;99.90;;;;;;5062471;28;20076;-48
2022/08/12 06:10:48;;;;;;;9.07;5.03;;;13.70;99.90;;;;;;5054007;28;20508;-49
2022/08/12 06:13:15;;;;;;;8.70;5.03;;;13.80;99.90;;;;;;5058056;28;20040;-52
2022/08/12 06:15:54;;;;;;;8.73;4.50;;;13.90;99.90;;;;;;5066273;28;20211;-49
2022/08/12 06:18:22;;;;;;;6.43;4.68;;;14.00;99.90;;;;;;5074143;28;20033;-49
2022/08/12 06:20:56;;;;;;;8.13;5.15;;;14.10;99.90;;;;;;5073048;28;20533;-49
2022/08/12 06:23:27;;;;;;;6.97;4.65;;;14.20;99.90;;;;;;5068397;28;20064;-48
2022/08/12 06:25:57;;;;;;;6.75;4.63;;;14.30;99.90;;;;;;5054569;28;20049;-49
2022/08/12 06:28:25;;;;;;;10.63;4.40;;;14.40;99.90;;;;;;5053981;28;20094;-49
2022/08/12 06:30:52;;;;;;;8.90;4.75;;;14.50;99.90;;;;;;5062926;28;20497;-48
2022/08/12 06:33:43;;;;;;;8.50;4.90;;;14.70;99.90;;;;;;5069541;28;20508;-48
2022/08/12 06:36:25;;;;;;;9.45;5.30;;;14.90;99.90;;;;;;5073800;28;20048;-48
2022/08/12 06:38:59;;;;;;;11.73;5.20;;;15.00;99.90;;;;;;5073240;28;20055;-48
2022/08/12 06:44:32;;;;;;;7.30;4.57;;;15.30;99.90;;;;;;5053758;28;19921;-48
2022/08/12 06:46:59;;;;;;;7.43;4.30;;;15.50;99.90;;;;;;5053552;28;20053;-49
2022/08/12 06:49:27;;;;;;;;;;;15.60;99.90;;;;;;5065075;28;20485;-49
2022/08/12 06:51:54;;;;;;;6.15;4.38;;;15.70;99.90;;;;;;5071065;28;19929;-50
2022/08/12 06:54:24;;;;;;;8.27;4.13;;;15.80;99.90;;;;;;5073588;28;20044;-50
2022/08/12 06:57:01;;;;;;;5.53;3.72;;;15.90;99.90;;;;;;5072455;28;20052;-50
2022/08/12 06:59:49;;;;;;;6.55;4.13;;;16.00;99.90;;;;;;5064886;28;20053;-48
2022/08/12 07:02:18;;;;;;;5.82;4.07;;;16.10;99.90;;;;;;5073422;28;20040;-49
2022/08/12 07:04:46;;;;;;;7.72;3.83;;;16.30;99.90;;;;;;5073136;28;20041;-50
2022/08/12 07:07:13;;;;;;;4.30;3.25;;;16.40;99.90;;;;;;5072359;28;20037;-49
2022/08/12 07:09:41;;;;;;;9.43;3.60;;;16.50;99.90;;;;;;5064834;28;20049;-50
2022/08/12 07:12:28;;;;;;;6.95;3.78;;;16.60;99.90;;;;;;5073133;28;20094;-49
2022/08/12 07:14:56;;;;;;;4.22;3.33;;;16.70;99.90;;;;;;5073165;28;20058;-50
2022/08/12 07:17:24;;;;;;;7.28;3.70;;;16.80;99.90;;;;;;5072173;28;20037;-49
2022/08/12 07:19:52;;;;;;;7.20;2.97;;;16.80;99.90;;;;;;5064440;28;20044;-53
2022/08/12 07:22:21;;;;;;;7.38;2.80;;;16.90;99.90;;;;;;5073043;28;20420;-52
2022/08/12 07:25:29;;;;;;;4.00;3.42;;;17.00;99.90;;;;;;5072953;28;20045;-49
2022/08/12 07:27:41;;;;;;;6.90;3.30;;;17.00;99.90;;;;;;5071793;28;20048;-49
2022/08/12 07:30:08;;;;;;;6.57;3.70;;;17.10;99.90;;;;;;5060648;28;20042;-50
2022/08/12 07:32:35;;;;;;;6.55;3.50;;;17.30;99.90;;;;;;5052611;28;20091;-50
2022/08/12 07:35:02;;;;;;;7.45;3.70;;;17.40;99.90;;;;;;5056443;28;20032;-50
2022/08/12 07:37:30;;;;;;;4.20;3.22;;;17.50;99.90;;;;;;5064130;28;20484;-52
2022/08/12 07:39:57;;;;;;;5.03;3.30;;;17.70;99.90;;;;;;5072331;28;20048;-49
2022/08/12 07:42:26;;;;;;;5.53;3.35;;;17.90;99.90;;;;;;5072710;28;20382;-50
2022/08/12 07:44:54;;;;;;;7.85;3.53;;;18.00;99.90;;;;;;5070261;28;20036;-52
2022/08/12 07:47:21;;;;;;;9.27;3.40;;;18.20;99.90;;;;;;5090051;22;20036;-49
2022/08/12 07:53:14;;;;;;;5.10;3.20;;;18.30;99.90;;;;;;5082280;28;19924;-50
2022/08/12 07:55:40;;;;;;;;;;;18.40;99.90;;;;;;5092771;28;20036;-50
2022/08/12 07:58:07;;;;;;;4.60;2.95;;;18.50;99.90;;;;;;5093403;28;19924;-49
2022/08/12 08:00:36;;;;;;;7.95;2.58;;;18.70;99.90;;;;;;5090651;28;20032;-49
2022/08/12 08:03:03;;;;;;;4.40;2.63;;;18.60;99.90;;;;;;5103278;28;20043;-52
2022/08/12 08:05:45;;;;;;;5.07;3.08;;;18.60;99.90;;;;;;5112849;28;20032;-49
2022/08/12 08:08:17;;;;;;;5.63;3.08;;;18.60;99.90;;;;;;5100126;28;20040;-49
2022/08/12 08:10:45;;;;;;;6.45;3.15;;;18.70;99.90;;;;;;5091735;28;20048;-50
2022/08/12 08:13:12;;;;;;;4.38;2.85;;;18.80;99.90;;;;;;5091668;28;20032;-51
2022/08/12 08:15:39;;;;;;;9.05;3.00;;;18.90;99.90;;;;;;5091352;28;20377;-52
2022/08/12 08:18:27;;;;;;;8.03;2.90;;;18.80;99.90;;;;;;5086015;28;20063;-49
2022/08/12 08:20:55;;;;;;;9.35;3.25;;;18.80;99.90;;;;;;5091510;28;20089;-50
2022/08/12 08:24:13;;;;;;;3.78;3.08;;;19.00;99.90;;;;;;5074148;28;20500;-51
2022/08/12 08:26:14;;;;;;;8.40;2.75;;;19.20;99.90;;;;;;5090637;28;20048;-50
2022/08/12 08:28:42;;;;;;;10.10;3.45;;;19.40;99.90;;;;;;5091842;28;20036;-50
2022/08/12 08:31:08;;;;;;;7.45;3.25;;;19.20;99.90;;;;;;5091374;28;20040;-51
2022/08/12 08:33:35;;;;;;;10.80;3.25;;;19.30;99.90;;;;;;5090830;28;20056;-50
2022/08/12 08:36:22;;;;;;;6.90;2.80;;;19.40;99.90;;;;;;5085211;28;20113;-50
2022/08/12 08:38:50;;;;;;;5.85;2.70;;;19.30;99.90;;;;;;5091958;28;20059;-52
2022/08/12 08:44:32;;;;;;;9.20;3.10;;;19.20;99.90;;;;;;5090783;28;20105;-49
2022/08/12 08:47:00;;;;;;;4.15;2.50;;;19.30;99.90;;;;;;5091393;28;20110;-49
2022/08/12 08:49:26;;;;;;;5.80;2.88;;;19.50;99.90;;;;;;5091421;28;20484;-50
2022/08/12 08:51:53;;;;;;;4.80;3.05;;;19.60;99.90;;;;;;5090417;28;20571;-51
2022/08/12 08:54:20;;;;;;;6.93;2.95;;;19.80;99.90;;;;;;5081821;28;20101;-49
2022/08/12 08:56:48;;;;;;;10.00;3.00;;;20.00;99.90;;;;;;5091611;28;20093;-50
2022/08/12 08:59:18;;;;;;;6.13;2.70;;;19.80;99.90;;;;;;5091372;28;20052;-51
2022/08/12 09:01:45;;;;;;;4.43;2.60;;;19.80;99.90;;;;;;5090129;28;20056;-49
2022/08/12 09:04:13;;;;;;;12.43;2.65;;;19.90;99.90;;;;;;5091404;28;20481;-50
2022/08/12 09:07:01;;;;;;;4.37;2.60;;;20.10;99.90;;;;;;5091582;28;20072;-50
2022/08/12 09:09:50;;;;;;;4.97;2.60;;;20.50;99.90;;;;;;5090145;28;20040;-54
2022/08/12 09:15:22;;;;;;;5.05;2.85;;;21.10;99.90;;;;;;5091473;28;20048;-50
2022/08/12 09:18:04;;;;;;;10.77;3.35;;;21.40;99.90;;;;;;5090139;28;20040;-49
2022/08/12 09:20:51;;;;;;;9.50;2.88;;;21.50;99.90;;;;;;5090671;28;20044;-49
2022/08/12 09:23:18;;;;;;;9.73;2.70;;;21.50;99.90;;;;;;5091269;28;20055;-52
2022/08/12 09:26:08;;;;;;;3.92;2.70;;;21.80;99.90;;;;;;5091549;28;20048;-50
2022/08/12 09:28:35;;;;;;;6.00;2.97;;;22.00;99.90;;;;;;5095183;28;20044;-49
2022/08/12 09:31:04;;;;;;;6.60;3.00;;;22.00;99.90;;;;;;5094897;28;20044;-51
2022/08/12 09:33:51;;;;;;;6.13;2.70;;;22.10;99.90;;;;;;5077044;28;20461;-50
2022/08/12 09:36:40;;;;;;;10.07;3.05;;;22.20;99.90;;;;;;5094576;28;20488;-51
2022/08/12 09:39:28;;;;;;;6.07;3.05;;;22.20;99.90;;;;;;5074879;28;20045;-51
2022/08/12 09:45:21;;;;;;;7.53;2.97;;;22.30;99.90;;;;;;5086952;28;20411;-50
2022/08/12 09:47:52;;;;;;;8.20;2.72;;;22.30;99.90;;;;;;5094808;28;20097;-53
2022/08/12 09:50:26;;;;;;;5.75;2.75;;;22.30;99.90;;;;;;5093591;28;20059;-50
2022/08/12 09:53:06;;;;;;;;;;;22.50;99.90;;;;;;5095359;28;20211;-52
2022/08/12 09:55:46;;;;;;;6.18;3.08;;;22.50;99.90;;;;;;5094834;28;19920;-50
2022/08/12 09:58:33;;;;;;;3.53;2.38;;;22.60;99.90;;;;;;5094070;28;20133;-51
2022/08/12 10:01:20;;;;;;;7.22;2.30;;;22.70;99.90;;;;;;5087276;28;20055;-50
2022/08/12 10:03:49;;;;;;;3.40;2.20;;;22.80;99.90;;;;;;5094555;28;20132;-49
2022/08/12 10:06:30;;;;;;;4.85;2.50;;;22.70;99.90;;;;;;5094766;28;20107;-49
2022/08/12 10:09:06;;;;;;;7.22;2.80;;;22.50;99.90;;;;;;5093222;28;20036;-50
2022/08/12 10:14:40;;;;;;;6.95;2.45;;;22.50;99.90;;;;;;5094551;28;20051;-50
2022/08/12 10:17:21;;;;;;;5.80;2.42;;;22.40;99.90;;;;;;5093548;28;20043;-49
2022/08/12 10:19:50;;;;;;;6.97;2.55;;;22.60;99.90;;;;;;5094141;28;20086;-52
2022/08/12 10:22:19;;;;;;;3.30;2.20;;;22.80;99.90;;;;;;5094353;28;20072;-51
2022/08/12 10:30:57;;;;;;;6.70;2.70;;;22.90;99.10;;;;;;5093629;28;20047;-50
2022/08/12 10:33:29;;;;;;;4.05;2.13;;;23.00;99.20;;;;;;5094308;28;20054;-50
2022/08/12 10:35:58;;;;;;;11.45;2.45;;;23.20;99.00;;;;;;5093091;28;20047;-52
2022/08/12 10:38:25;;;;;;;6.45;1.90;;;23.40;97.80;;;;;;5093208;28;20032;-50
2022/08/12 10:44:14;;;;;;;2.65;2.00;;;23.50;96.90;;;;;;5089908;28;20044;-50
2022/08/12 10:46:46;;;;;;;4.00;2.50;;;23.70;96.30;;;;;;5093685;28;20408;-50
2022/08/12 10:49:16;;;;;;;4.20;2.10;;;23.50;96.40;;;;;;5093824;28;20061;-50
2022/08/12 10:52:06;;;;;;;3.43;2.43;;;23.60;96.30;;;;;;5092708;28;20040;-51
2022/08/12 10:54:54;;;;;;;3.05;2.47;;;23.60;96.20;;;;;;5093700;28;20052;-51
2022/08/12 10:57:25;;;;;;;8.60;2.10;;;23.70;96.90;;;;;;5093826;28;20055;-51
2022/08/12 11:00:13;;;;;;;3.78;1.98;;;23.90;97.20;;;;;;5092393;28;20109;-51
2022/08/12 11:03:00;;;;;;;9.93;1.98;;;24.10;96.30;;;;;;5093466;28;20090;-50
2022/08/12 11:05:47;;;;;;;4.15;2.33;;;24.10;96.80;;;;;;5093339;28;20048;-50
2022/08/12 11:08:36;;;;;;;3.72;2.17;;;24.10;96.00;;;;;;5093660;28;20048;-50
2022/08/12 11:11:16;;;;;;;3.83;1.83;;;24.10;95.70;;;;;;5092657;28;20036;-50
2022/08/12 11:14:04;;;;;;;9.77;2.17;;;24.10;96.20;;;;;;5093341;28;20157;-50
2022/08/12 11:16:32;;;;;;;5.32;2.10;;;24.10;95.40;;;;;;5093226;28;20040;-50
2022/08/12 11:19:01;;;;;;;2.65;2.40;;;24.20;95.00;;;;;;5092476;28;20040;-52
2022/08/12 11:21:28;;;;;;;2.85;2.50;;;24.10;95.80;;;;;;5074786;28;20036;-50
2022/08/12 11:24:15;;;;;;;3.90;2.00;;;24.10;95.40;;;;;;5093400;28;20089;-50
2022/08/12 11:27:06;;;;;;;6.07;2.17;;;24.30;95.80;;;;;;5092039;28;20043;-50
2022/08/12 11:29:37;;;;;;;4.28;2.38;;;24.40;93.70;;;;;;5092972;28;20089;-50
2022/08/12 11:32:24;;;;;;;3.22;1.85;;;24.60;95.70;;;;;;5092870;28;20500;-51
2022/08/12 11:34:50;;;;;;;5.32;1.95;;;24.60;94.60;;;;;;5092625;28;20047;-49
2022/08/12 11:37:21;;;;;;;4.75;1.80;;;24.60;94.60;;;;;;5092743;28;20210;-51
2022/08/12 11:39:53;;;;;;;5.00;1.80;;;24.80;94.70;;;;;;5092530;28;20097;-51
2022/08/12 11:42:34;;;;;;;5.18;1.85;;;24.80;93.50;;;;;;5091983;28;20040;-50
2022/08/12 11:45:04;;;;;;;3.13;1.90;;;24.90;93.30;;;;;;5092547;28;20063;-51
2022/08/12 11:47:30;;;;;;;3.10;1.63;;;25.20;93.50;;;;;;5092183;28;20105;-50
2022/08/12 11:49:57;;;;;;;3.55;1.63;;;25.30;92.40;;;;;;5091339;28;20082;-50
2022/08/12 11:52:24;;;;;;;5.78;1.70;;;25.10;93.70;;;;;;5087835;28;20040;-50
2022/08/12 11:55:11;;;;;;;4.28;1.88;;;25.20;92.50;;;;;;5090906;28;20081;-50
2022/08/12 11:57:52;;;;;;;8.52;1.85;;;25.40;92.20;;;;;;5092405;28;20047;-50
2022/08/12 12:00:39;;;;;;;;;;;25.40;91.90;;;;;;5072172;28;20579;-52
2022/08/12 12:03:26;;;;;;;1.70;1.35;;;25.30;91.70;;;;;;5072514;28;19920;-52
2022/08/12 12:06:49;;;;;;;6.07;1.80;;;25.50;91.90;;;;;;5092338;28;20048;-48
2022/08/12 12:09:18;;;;;;;4.55;1.88;;;25.50;91.20;;;;;;5091985;28;20044;-51
2022/08/12 12:11:47;;;;;;;2.55;1.52;;;25.40;90.20;;;;;;5091502;28;20496;-50
2022/08/12 12:14:15;;;;;;;4.90;1.63;;;25.40;91.10;;;;;;5091216;28;20054;-52
2022/08/12 12:16:43;;;;;;;6.07;1.60;;;25.40;91.50;;;;;;5092174;28;20048;-52
2022/08/12 12:19:16;;;;;;;2.22;1.83;;;25.40;91.20;;;;;;5091209;28;20945;-53
2022/08/12 12:21:44;;;;;;;2.85;1.50;;;25.50;91.10;;;;;;5089871;28;20097;-50
2022/08/12 12:24:15;;;;;;;6.80;1.35;;;25.40;91.20;;;;;;5092146;28;20042;-52
2022/08/12 12:26:49;;;;;;;4.38;1.58;;;25.70;87.50;;;;;;5092156;28;20032;-50
2022/08/12 12:29:31;;;;;;;4.68;1.40;;;25.70;88.90;;;;;;5091109;28;20046;-54
2022/08/12 12:32:18;;;;;;;1.67;1.42;;;25.90;88.60;;;;;;5071738;28;20045;-50
2022/08/12 12:34:56;;;;;;;2.10;1.40;;;26.00;85.80;;;;;;5071641;28;20048;-52
2022/08/12 12:37:57;;;;;;;2.95;1.45;;;26.00;86.90;;;;;;5083279;28;20549;-50
2022/08/12 12:40:39;;;;;;;3.63;1.48;;;26.30;85.70;;;;;;5087091;28;20539;-50
2022/08/12 12:43:06;;;;;;;2.90;1.58;;;26.40;84.70;;;;;;5091875;28;20052;-51
2022/08/12 12:45:35;;;;;;;2.88;1.50;;;26.50;82.20;;;;;;5089308;28;20044;-52
2022/08/12 12:48:05;;;;;;;4.35;1.38;;;26.30;82.90;;;;;;5090787;28;20102;-50
2022/08/12 12:50:34;;;;;;;1.90;1.70;;;25.90;81.50;;;;;;5090708;28;20036;-50
2022/08/12 12:53:20;;;;;;;3.40;1.45;;;25.40;82.60;;;;;;5088771;28;20064;-51
2022/08/12 12:56:12;;;;;;;5.55;1.75;;;25.40;82.60;;;;;;5089478;28;20040;-50
2022/08/12 12:58:39;;;;;;;6.15;1.63;;;24.90;83.00;;;;;;5090865;28;20058;-55
2022/08/12 13:01:10;;;;;;;3.50;1.70;;;25.00;81.70;;;;;;5090508;28;20047;-54
2022/08/12 13:03:56;;;;;;;3.42;1.50;;;25.30;84.70;;;;;;5087334;28;20040;-54
2022/08/12 13:06:29;;;;;;;2.83;1.70;;;25.40;83.80;;;;;;5091011;28;20122;-53
2022/08/12 13:09:00;;;;;;;2.13;1.40;;;25.00;83.80;;;;;;5088490;28;20036;-53
2022/08/12 13:11:30;;;;;;;3.42;1.30;;;24.30;84.30;;;;;;5090620;28;20040;-50
2022/08/12 13:14:12;;;;;;;2.55;1.50;;;24.30;83.00;;;;;;5087170;28;20147;-50
2022/08/12 13:16:55;;;;;;;3.05;1.50;;;24.90;83.40;;;;;;5091068;28;20094;-50
2022/08/12 13:19:23;;;;;;;3.53;1.58;;;25.40;83.70;;;;;;5090173;28;20093;-50
2022/08/12 13:22:16;;;;;;;3.58;1.50;;;25.20;82.40;;;;;;5089919;28;20452;-53
2022/08/12 13:24:45;;;;;;;4.05;1.70;;;24.60;81.00;;;;;;5090904;28;20074;-53
2022/08/12 13:27:19;;;;;;;5.10;1.33;;;24.30;81.30;;;;;;5090955;28;20044;-53
2022/08/12 13:29:46;;;;;;;6.13;1.52;;;24.30;82.20;;;;;;5088859;28;20496;-54
2022/08/12 13:32:14;;;;;;;1.92;1.20;;;24.40;83.60;;;;;;5089888;28;20036;-50
2022/08/12 13:35:02;;;;;;;5.63;1.48;;;25.00;82.00;;;;;;5089612;28;20032;-50
2022/08/12 13:37:52;;;;;;;3.55;1.48;;;25.00;80.10;;;;;;5070820;28;20412;-50
2022/08/12 13:40:23;;;;;;;3.15;1.70;;;24.70;83.20;;;;;;5087197;28;20373;-54
2022/08/12 13:42:51;;;;;;;4.97;1.50;;;24.50;82.00;;;;;;5091270;28;20127;-51
2022/08/12 13:45:18;;;;;;;3.95;1.58;;;24.30;83.40;;;;;;5090581;28;20086;-51
2022/08/12 13:48:14;;;;;;;3.42;1.30;;;24.20;86.20;;;;;;5121295;22;20050;-55
2022/08/12 13:51:54;;;;;;;10.95;1.58;;;23.90;82.90;;;;;;5120685;28;20035;-54
2022/08/12 13:54:22;;;;;;;4.50;1.40;;;24.10;85.10;;;;;;5129473;28;20035;-49
2022/08/12 13:56:49;;;;;;;2.30;1.80;;;24.30;85.70;;;;;;5129868;27;20047;-49
2022/08/12 13:59:20;;;;;;;9.18;1.58;;;24.20;85.70;;;;;;5128267;28;20050;-49
2022/08/12 14:01:53;;;;;;;4.43;1.60;;;24.10;85.10;;;;;;5125528;28;20568;-51
2022/08/12 14:04:22;;;;;;;2.45;1.48;;;23.90;86.60;;;;;;5127644;28;20042;-50
2022/08/12 14:06:50;;;;;;;2.80;1.58;;;23.80;87.70;;;;;;5120656;27;20733;-50
2022/08/12 14:09:17;;;;;;;4.40;1.42;;;23.80;86.40;;;;;;5115945;28;20463;-50
2022/08/12 14:11:45;;;;;;;1.95;1.20;;;23.70;86.80;;;;;;5116087;27;20130;-51
2022/08/12 14:14:27;;;;;;;5.97;1.65;;;23.80;87.20;;;;;;5128938;27;20395;-50
2022/08/12 14:16:57;;;;;;;4.90;1.20;;;24.10;85.60;;;;;;5127719;27;20438;-51
2022/08/12 14:19:23;;;;;;;1.40;1.30;;;24.10;88.20;;;;;;5124570;27;20087;-50
2022/08/12 14:22:03;;;;;;;3.05;1.10;;;23.90;88.10;;;;;;5131312;27;20100;-51
2022/08/12 14:24:35;;;;;;;1.30;1.20;;;23.70;85.80;;;;;;5133117;27;20039;-50
2022/08/12 14:27:08;;;;;;;7.35;1.48;;;23.40;88.00;;;;;;5134862;27;20122;-50
2022/08/12 14:29:40;;;;;;;2.92;1.50;;;23.20;88.90;;;;;;5131556;27;20491;-50
2022/08/12 14:32:33;;;;;;;1.58;1.20;;;23.20;87.60;;;;;;5126716;27;20051;-54
2022/08/12 14:35:05;;;;;;;8.25;1.40;;;23.10;87.40;;;;;;5132663;27;20039;-51
2022/08/12 14:37:39;;;;;;;2.05;1.52;;;23.10;87.90;;;;;;5134354;27;20403;-50
2022/08/12 14:40:24;;;;;;;2.72;1.30;;;23.10;87.10;;;;;;5128817;27;20100;-49
2022/08/12 14:42:54;;;;;;;1.92;1.20;;;22.90;88.10;;;;;;5103249;28;20044;-52
2022/08/12 14:45:23;;;;;;;2.45;1.40;;;22.70;89.40;;;;;;5114600;28;20058;-49
2022/08/12 14:48:11;;;;;;;4.25;1.30;;;22.50;90.50;;;;;;5123604;27;20042;-50
2022/08/12 14:50:38;;;;;;;3.47;1.40;;;22.60;89.00;;;;;;5129504;27;20057;-50
2022/08/12 14:53:28;;;;;;;1.63;1.27;;;23.30;87.90;;;;;;5117140;27;20511;-50
2022/08/12 14:56:19;;;;;;;4.80;1.48;;;24.20;88.90;;;;;;5118059;27;20092;-50
2022/08/12 15:02:19;;;;;;;3.50;1.63;;;24.90;85.20;;;;;;5117270;27;20070;-50
2022/08/12 15:04:54;;;;;;;2.30;1.00;;;25.10;83.80;;;;;;5125558;27;20058;-53
2022/08/12 15:07:21;;;;;;;1.20;1.10;;;24.80;83.90;;;;;;5115893;27;20058;-51
2022/08/12 15:10:08;;;;;;;1.40;1.00;;;24.10;83.60;;;;;;5133801;27;20099;-52
2022/08/12 15:12:35;;;;;;;5.65;1.30;;;23.50;86.00;;;;;;5124023;27;20126;-51
2022/08/12 15:15:07;;;;;;;3.03;1.38;;;23.10;86.60;;;;;;5133885;27;20067;-51
2022/08/12 15:17:37;;;;;;;3.28;1.15;;;22.80;86.80;;;;;;5133019;27;20094;-53
2022/08/12 15:20:05;;;;;;;2.35;1.10;;;22.70;88.40;;;;;;5114537;27;20035;-50
2022/08/12 15:22:53;;;;;;;4.03;1.30;;;22.50;85.40;;;;;;5123881;27;20067;-50
2022/08/12 15:25:20;;;;;;;1.75;1.10;;;22.30;88.90;;;;;;5133227;27;20096;-54